createdAt,value
2022-11-16T00:00:24.641Z,47.25
2022-11-16T00:02:53.115Z,47.02
2022-11-16T00:05:25.648Z,47.08
2022-11-16T00:07:56.504Z,47.03
2022-11-16T00:10:24.928Z,46.82
2022-11-16T00:12:53.469Z,46.70
2022-11-16T00:15:23.315Z,47.12
2022-11-16T00:17:51.698Z,46.74
2022-11-16T00:20:20.157Z,47.02
2022-11-16T00:22:49.008Z,46.87
2022-11-16T00:25:17.736Z,47.07
2022-11-16T00:27:46.099Z,47.12
2022-11-16T00:30:15.025Z,47.18
2022-11-16T00:32:45.485Z,47.12
2022-11-16T00:35:14.083Z,47.14
2022-11-16T00:37:42.431Z,47.33
2022-11-16T00:40:12.267Z,47.10
2022-11-16T00:42:40.656Z,47.51
2022-11-16T00:45:10.181Z,47.07
2022-11-16T00:47:38.941Z,47.49
2022-11-16T00:50:10.580Z,47.44
2022-11-16T00:52:38.924Z,47.16
2022-11-16T00:55:08.213Z,47.30
2022-11-16T00:57:37.862Z,46.96
2022-11-16T01:00:08.330Z,47.22
2022-11-16T01:02:36.785Z,47.31
2022-11-16T01:05:05.481Z,47.09
2022-11-16T01:07:35.830Z,47.00
2022-11-16T01:10:05.900Z,47.02
2022-11-16T01:12:33.118Z,47.51
2022-11-16T01:15:01.510Z,47.05
2022-11-16T01:17:30.064Z,46.97
2022-11-16T01:19:58.383Z,47.21
2022-11-16T01:22:26.817Z,47.18
2022-11-16T01:24:56.702Z,47.22
2022-11-16T01:27:26.129Z,47.04
2022-11-16T01:29:55.177Z,47.09
2022-11-16T01:32:23.821Z,47.38
2022-11-16T01:34:52.228Z,47.10
2022-11-16T01:37:31.839Z,47.15
2022-11-16T01:40:01.641Z,47.16
2022-11-16T01:42:31.792Z,47.01
2022-11-16T01:45:05.380Z,47.31
2022-11-16T01:47:34.597Z,47.30
2022-11-16T01:50:10.333Z,47.27
2022-11-16T01:52:41.996Z,47.23
2022-11-16T01:55:12.329Z,47.09
2022-11-16T01:57:52.192Z,47.47
2022-11-16T02:00:20.764Z,47.27
2022-11-16T02:02:59.111Z,47.52
2022-11-16T02:05:50.668Z,47.25
2022-11-16T02:08:43.421Z,47.15
2022-11-16T02:11:24.710Z,47.39
2022-11-16T02:13:59.115Z,47.14
2022-11-16T02:16:31.589Z,47.65
2022-11-16T02:19:03.422Z,47.22
2022-11-16T02:21:38.198Z,47.54
2022-11-16T02:24:34.553Z,47.13
2022-11-16T02:27:46.533Z,47.32
2022-11-16T02:30:18.277Z,47.11
2022-11-16T02:32:49.684Z,47.44
2022-11-16T02:35:20.203Z,47.55
2022-11-16T02:37:52.752Z,47.41
2022-11-16T02:40:22.113Z,47.27
2022-11-16T02:42:52.949Z,47.35
2022-11-16T02:45:24.001Z,47.09
2022-11-16T02:47:53.389Z,47.35
2022-11-16T02:50:23.417Z,47.25
2022-11-16T02:52:52.792Z,47.16
2022-11-16T02:55:21.332Z,46.89
2022-11-16T02:57:51.510Z,47.52
2022-11-16T03:00:24.040Z,47.28
2022-11-16T03:03:02.393Z,47.30
2022-11-16T03:05:35.992Z,47.40
2022-11-16T03:08:11.662Z,47.37
2022-11-16T03:10:58.090Z,47.24
2022-11-16T03:13:28.138Z,47.61
2022-11-16T03:15:58.038Z,47.44
2022-11-16T03:18:27.569Z,47.40
2022-11-16T03:20:58.539Z,47.32
2022-11-16T03:23:27.474Z,47.68
2022-11-16T03:25:56.245Z,47.15
2022-11-16T03:28:27.704Z,47.71
2022-11-16T03:31:05.477Z,47.44
2022-11-16T03:33:36.658Z,47.21
2022-11-16T03:36:07.811Z,47.39
2022-11-16T03:38:36.961Z,47.30
2022-11-16T03:41:08.220Z,47.63
2022-11-16T03:43:37.023Z,47.90
2022-11-16T03:46:07.952Z,47.39
2022-11-16T03:48:36.872Z,46.96
2022-11-16T03:51:10.464Z,47.63
2022-11-16T03:53:40.568Z,47.72
2022-11-16T03:56:10.873Z,47.38
2022-11-16T03:58:40.392Z,47.25
2022-11-16T04:01:10.301Z,47.37
2022-11-16T04:03:39.887Z,47.47
2022-11-16T04:06:28.465Z,47.30
2022-11-16T04:09:14.322Z,47.47
2022-11-16T04:12:00.409Z,47.70
2022-11-16T04:14:45.910Z,47.37
2022-11-16T04:17:36.319Z,47.66
2022-11-16T04:20:23.083Z,47.22
2022-11-16T04:23:12.571Z,47.79
2022-11-16T04:25:41.602Z,47.55
2022-11-16T04:28:16.364Z,47.01
2022-11-16T04:31:18.190Z,47.67
2022-11-16T04:34:13.847Z,47.73
2022-11-16T04:37:04.406Z,47.40
2022-11-16T04:39:33.186Z,47.50
2022-11-16T04:42:19.846Z,47.61
2022-11-16T04:45:08.848Z,47.43
2022-11-16T04:47:49.660Z,47.51
2022-11-16T04:50:20.358Z,47.69
2022-11-16T04:52:50.664Z,47.36
2022-11-16T04:55:19.086Z,47.77
2022-11-16T04:57:49.265Z,47.17
2022-11-16T05:00:18.913Z,47.22
2022-11-16T05:02:47.354Z,47.23
2022-11-16T05:05:15.800Z,47.60
2022-11-16T05:07:47.305Z,47.34
2022-11-16T05:10:22.364Z,47.40
2022-11-16T05:12:51.933Z,47.24
2022-11-16T05:15:20.813Z,47.30
2022-11-16T05:17:51.233Z,47.58
2022-11-16T05:20:41.017Z,47.54
2022-11-16T05:23:31.907Z,47.48
2022-11-16T05:26:05.985Z,47.14
2022-11-16T05:28:34.908Z,46.77
2022-11-16T05:31:04.037Z,47.10
2022-11-16T05:33:33.831Z,46.99
2022-11-16T05:36:02.219Z,46.77
2022-11-16T05:38:32.552Z,46.76
2022-11-16T05:41:02.491Z,46.69
2022-11-16T05:43:31.849Z,47.00
2022-11-16T05:46:08.742Z,46.64
2022-11-16T05:48:37.496Z,46.86
2022-11-16T05:51:07.646Z,46.54
2022-11-16T05:53:37.865Z,46.82
2022-11-16T05:56:07.902Z,46.52
2022-11-16T05:58:40.317Z,46.67
2022-11-16T06:01:08.817Z,46.77
2022-11-16T06:03:37.506Z,46.60
2022-11-16T06:06:06.482Z,46.46
2022-11-16T06:08:35.184Z,46.35
2022-11-16T06:11:09.106Z,46.72
2022-11-16T06:13:38.183Z,46.88
2022-11-16T06:16:08.041Z,47.03
2022-11-16T06:18:38.726Z,46.79
2022-11-16T06:21:07.386Z,46.50
2022-11-16T06:23:35.720Z,46.65
2022-11-16T06:26:04.272Z,46.67
2022-11-16T06:28:35.373Z,46.78
2022-11-16T06:31:04.040Z,46.53
2022-11-16T06:33:37.923Z,47.12
2022-11-16T06:36:10.765Z,46.58
2022-11-16T06:38:39.233Z,46.53
2022-11-16T06:41:08.771Z,46.41
2022-11-16T06:43:43.792Z,46.58
2022-11-16T06:46:12.551Z,46.56
2022-11-16T06:48:41.673Z,46.84
2022-11-16T06:51:13.811Z,46.44
2022-11-16T06:53:42.197Z,46.63
2022-11-16T06:56:10.569Z,46.57
2022-11-16T06:58:45.491Z,46.69
2022-11-16T07:01:15.933Z,46.67
2022-11-16T07:03:46.330Z,46.51
2022-11-16T07:06:16.042Z,46.76
2022-11-16T07:08:46.917Z,46.74
2022-11-16T07:11:20.306Z,46.53
2022-11-16T07:13:50.246Z,46.23
2022-11-16T07:16:19.026Z,46.18
2022-11-16T07:18:56.797Z,46.08
2022-11-16T07:21:25.532Z,45.86
2022-11-16T07:23:55.980Z,46.06
2022-11-16T07:26:24.597Z,46.51
2022-11-16T07:29:00.918Z,46.29
2022-11-16T07:31:30.022Z,46.15
2022-11-16T07:34:27.975Z,46.29
2022-11-16T07:37:06.468Z,46.20
2022-11-16T07:39:34.925Z,45.97
2022-11-16T07:42:06.223Z,46.19
2022-11-16T07:44:55.268Z,46.30
2022-11-16T07:47:23.770Z,46.10
2022-11-16T07:49:52.345Z,46.11
2022-11-16T07:52:22.848Z,46.27
2022-11-16T07:55:11.452Z,46.50
2022-11-16T07:57:40.157Z,45.81
2022-11-16T08:00:13.608Z,46.16
2022-11-16T08:02:41.869Z,46.21
2022-11-16T08:05:16.616Z,46.41
2022-11-16T08:07:45.209Z,46.44
2022-11-16T08:10:14.022Z,46.22
2022-11-16T08:12:42.834Z,45.99
2022-11-16T08:15:15.245Z,46.21
2022-11-16T08:17:44.346Z,46.11
2022-11-16T08:20:14.148Z,46.39
2022-11-16T08:22:43.455Z,46.12
2022-11-16T08:25:12.525Z,45.71
2022-11-16T08:27:43.593Z,45.97
2022-11-16T08:30:15.450Z,46.00
2022-11-16T08:32:45.824Z,46.15
2022-11-16T08:35:15.864Z,46.01
2022-11-16T08:37:45.657Z,46.02
2022-11-16T08:40:14.803Z,46.27
2022-11-16T08:42:44.274Z,46.00
2022-11-16T08:45:15.469Z,46.00
2022-11-16T08:47:43.901Z,45.96
2022-11-16T08:50:12.429Z,45.95
2022-11-16T08:52:41.225Z,46.33
2022-11-16T08:55:10.425Z,45.72
2022-11-16T08:57:40.012Z,45.80
2022-11-16T09:00:12.804Z,45.78
2022-11-16T09:02:42.580Z,46.33
2022-11-16T09:05:12.202Z,45.70
2022-11-16T09:07:41.039Z,45.98
2022-11-16T09:10:11.067Z,45.92
2022-11-16T09:12:39.532Z,46.08
2022-11-16T09:15:08.773Z,46.21
2022-11-16T09:17:37.121Z,46.36
2022-11-16T09:20:08.669Z,46.07
2022-11-16T09:22:36.978Z,45.80
2022-11-16T09:25:06.023Z,46.08
2022-11-16T09:27:34.304Z,46.20
2022-11-16T09:30:02.731Z,45.97
2022-11-16T09:32:31.082Z,46.09
2022-11-16T09:34:59.609Z,45.99
2022-11-16T09:37:29.345Z,46.10
2022-11-16T09:39:58.438Z,45.93
2022-11-16T09:42:33.993Z,45.89
2022-11-16T09:45:06.370Z,45.74
2022-11-16T09:47:42.182Z,45.60
2022-11-16T09:50:18.787Z,45.72
2022-11-16T09:52:48.595Z,45.75
2022-11-16T09:55:23.730Z,45.56
2022-11-16T09:57:52.464Z,45.74
2022-11-16T10:00:23.828Z,45.92
2022-11-16T10:02:59.110Z,45.55
2022-11-16T10:05:28.780Z,45.84
2022-11-16T10:08:01.337Z,46.01
2022-11-16T10:10:34.981Z,45.95
2022-11-16T10:13:06.031Z,45.92
2022-11-16T10:15:42.666Z,45.70
2022-11-16T10:18:18.059Z,45.97
2022-11-16T10:21:00.293Z,45.87
2022-11-16T10:23:37.116Z,46.14
2022-11-16T10:26:08.295Z,46.14
2022-11-16T10:28:48.518Z,45.98
2022-11-16T10:31:19.833Z,45.86
2022-11-16T10:33:48.369Z,46.11
2022-11-16T10:36:17.005Z,46.10
2022-11-16T10:38:46.900Z,46.63
2022-11-16T10:41:19.216Z,46.68
2022-11-16T10:43:47.558Z,46.38
2022-11-16T10:46:18.411Z,46.04
2022-11-16T10:48:51.785Z,45.81
2022-11-16T10:51:20.217Z,46.21
2022-11-16T10:53:49.950Z,45.68
2022-11-16T10:56:20.912Z,45.70
2022-11-16T10:58:53.933Z,45.88
2022-11-16T11:01:33.865Z,46.05
2022-11-16T11:04:16.505Z,46.16
2022-11-16T11:06:45.109Z,46.13
2022-11-16T11:09:24.512Z,46.08
2022-11-16T11:12:19.805Z,46.35
2022-11-16T11:15:02.322Z,46.01
2022-11-16T11:17:30.746Z,46.60
2022-11-16T11:20:00.695Z,46.49
2022-11-16T11:22:29.216Z,46.90
2022-11-16T11:24:59.089Z,46.58
2022-11-16T11:27:29.681Z,46.38
2022-11-16T11:29:59.384Z,50.32
2022-11-16T11:32:31.441Z,48.26
2022-11-16T11:35:01.712Z,47.96
2022-11-16T11:37:31.778Z,48.02
2022-11-16T11:40:21.998Z,47.98
2022-11-16T11:42:58.183Z,47.61
2022-11-16T11:45:29.646Z,47.77
2022-11-16T11:48:00.270Z,47.45
2022-11-16T11:50:38.283Z,47.71
2022-11-16T11:53:08.346Z,47.79
2022-11-16T11:55:38.188Z,47.86
2022-11-16T11:58:07.117Z,47.98
2022-11-16T12:00:50.169Z,47.84
2022-11-16T12:03:44.823Z,47.92
2022-11-16T12:06:19.247Z,48.15
2022-11-16T12:09:09.241Z,47.57
2022-11-16T12:11:47.236Z,48.31
2022-11-16T12:14:22.412Z,48.02
2022-11-16T12:16:53.213Z,48.21
2022-11-16T12:19:32.470Z,47.90
2022-11-16T12:22:07.572Z,47.92
2022-11-16T12:24:42.087Z,48.11
2022-11-16T12:27:17.265Z,48.14
2022-11-16T12:29:48.022Z,48.17
2022-11-16T12:32:30.393Z,48.12
2022-11-16T12:35:06.965Z,48.12
2022-11-16T12:37:39.473Z,48.32
2022-11-16T12:40:21.913Z,48.31
2022-11-16T12:42:52.880Z,47.88
2022-11-16T12:45:32.559Z,48.50
2022-11-16T12:48:15.670Z,48.62
2022-11-16T12:50:48.972Z,48.55
2022-11-16T12:53:26.232Z,48.60
2022-11-16T12:55:57.496Z,48.60
2022-11-16T12:58:33.045Z,48.70
2022-11-16T13:01:05.829Z,48.97
2022-11-16T13:03:37.463Z,48.68
2022-11-16T13:06:07.362Z,48.64
2022-11-16T13:08:39.867Z,48.59
2022-11-16T13:11:11.379Z,49.04
2022-11-16T13:13:41.253Z,48.99
2022-11-16T13:16:09.999Z,48.97
2022-11-16T13:18:40.401Z,48.68
2022-11-16T13:21:12.629Z,49.12
2022-11-16T13:23:46.806Z,49.30
2022-11-16T13:26:18.013Z,49.24
2022-11-16T13:28:52.121Z,49.25
2022-11-16T13:31:21.237Z,49.25
2022-11-16T13:33:51.312Z,49.26
2022-11-16T13:36:45.386Z,49.55
2022-11-16T13:39:21.519Z,49.50
2022-11-16T13:41:50.884Z,48.86
2022-11-16T13:44:28.646Z,49.22
2022-11-16T13:46:59.862Z,48.84
2022-11-16T13:49:31.929Z,49.26
2022-11-16T13:52:21.392Z,49.15
2022-11-16T13:54:50.616Z,49.35
2022-11-16T13:57:24.725Z,49.25
2022-11-16T14:00:08.816Z,49.29
2022-11-16T14:02:39.365Z,48.98
2022-11-16T14:05:17.620Z,49.25
2022-11-16T14:07:47.466Z,49.41
2022-11-16T14:11:00.939Z,49.54
2022-11-16T14:13:38.677Z,48.99
2022-11-16T14:16:44.341Z,49.25
2022-11-16T14:19:50.024Z,49.55
2022-11-16T14:22:36.049Z,49.50
2022-11-16T14:25:07.420Z,49.51
2022-11-16T14:27:36.969Z,49.54
2022-11-16T14:30:07.036Z,49.16
2022-11-16T14:32:41.399Z,49.72
2022-11-16T14:35:25.569Z,49.24
2022-11-16T14:37:58.834Z,49.57
2022-11-16T14:40:27.191Z,49.27
2022-11-16T14:45:44.881Z,49.36
2022-11-16T14:48:17.107Z,49.49
2022-11-16T14:50:45.470Z,49.75
2022-11-16T14:53:16.784Z,49.59
2022-11-16T14:55:46.097Z,49.59
2022-11-16T14:58:18.953Z,49.44
2022-11-16T15:00:54.122Z,49.42
2022-11-16T15:03:24.521Z,49.61
2022-11-16T15:05:52.879Z,49.81
2022-11-16T15:08:23.602Z,49.83
2022-11-16T15:10:52.697Z,49.42
2022-11-16T15:13:21.493Z,49.50
2022-11-16T15:15:50.533Z,49.54
2022-11-16T15:18:20.017Z,49.38
2022-11-16T15:20:52.140Z,49.85
2022-11-16T15:23:27.603Z,49.52
2022-11-16T15:26:00.188Z,49.77
2022-11-16T15:28:29.386Z,49.76
2022-11-16T15:30:59.194Z,49.43
2022-11-16T15:33:29.299Z,49.06
2022-11-16T15:35:58.540Z,49.18
2022-11-16T15:38:28.587Z,48.97
2022-11-16T15:40:58.097Z,49.07
2022-11-16T15:43:27.395Z,49.31
2022-11-16T15:45:55.669Z,49.22
2022-11-16T15:48:27.113Z,48.81
2022-11-16T15:51:04.225Z,48.97
2022-11-16T15:53:39.526Z,48.99
2022-11-16T15:56:09.966Z,48.76
2022-11-16T15:58:39.982Z,49.07
2022-11-16T16:01:09.308Z,48.89
2022-11-16T16:03:38.101Z,47.75
2022-11-16T16:06:08.025Z,48.10
2022-11-16T16:08:38.381Z,48.09
2022-11-16T16:11:27.824Z,48.36
2022-11-16T16:13:59.722Z,48.14
2022-11-16T16:16:29.926Z,47.89
2022-11-16T16:19:03.653Z,48.24
2022-11-16T16:21:45.344Z,47.93
2022-11-16T16:24:35.659Z,47.87
2022-11-16T16:27:03.972Z,48.01
2022-11-16T16:29:32.168Z,48.32
2022-11-16T16:32:00.447Z,47.87
2022-11-16T16:34:28.634Z,48.54
2022-11-16T16:36:56.978Z,48.40
2022-11-16T16:39:26.730Z,48.34
2022-11-16T16:41:54.973Z,47.89
2022-11-16T16:44:23.277Z,48.21
2022-11-16T16:46:51.580Z,48.02
2022-11-16T16:49:19.853Z,47.91
2022-11-16T16:51:48.140Z,48.37
2022-11-16T16:54:16.350Z,47.98
2022-11-16T16:56:46.186Z,48.17
2022-11-16T16:59:14.624Z,47.84
2022-11-16T17:01:42.902Z,47.88
2022-11-16T17:04:11.663Z,48.16
2022-11-16T17:06:43.777Z,48.44
2022-11-16T17:09:14.742Z,47.90
2022-11-16T17:11:43.249Z,48.31
2022-11-16T17:14:13.581Z,47.43
2022-11-16T17:16:44.868Z,47.63
2022-11-16T17:19:14.044Z,47.50
2022-11-16T17:21:42.343Z,47.71
2022-11-16T17:24:10.768Z,47.90
2022-11-16T17:26:39.130Z,47.55
2022-11-16T17:29:07.508Z,47.74
2022-11-16T17:31:41.144Z,47.71
2022-11-16T17:34:13.596Z,47.75
2022-11-16T17:36:42.407Z,47.80
2022-11-16T17:39:10.706Z,47.92
2022-11-16T17:41:38.972Z,47.73
2022-11-16T17:44:07.533Z,47.92
2022-11-16T17:46:37.458Z,47.70
2022-11-16T17:49:05.796Z,47.71
2022-11-16T17:51:34.105Z,47.40
2022-11-16T17:54:02.446Z,47.66
2022-11-16T17:56:30.920Z,48.03
2022-11-16T17:58:59.589Z,47.94
2022-11-16T18:01:28.627Z,48.15
2022-11-16T18:03:58.602Z,47.76
2022-11-16T18:06:29.869Z,47.62
2022-11-16T18:08:58.333Z,47.72
2022-11-16T18:11:27.379Z,47.66
2022-11-16T18:13:56.157Z,48.17
2022-11-16T18:16:25.453Z,47.97
2022-11-16T18:18:58.779Z,48.12
2022-11-16T18:21:27.112Z,47.54
2022-11-16T18:23:55.316Z,47.79
2022-11-16T18:26:24.362Z,47.60
2022-11-16T18:28:53.119Z,47.90
2022-11-16T18:31:22.640Z,47.65
2022-11-16T18:33:50.839Z,47.64
2022-11-16T18:36:21.248Z,47.62
2022-11-16T18:38:49.430Z,47.41
2022-11-16T18:41:19.805Z,47.55
2022-11-16T18:43:51.913Z,47.89
2022-11-16T18:46:20.482Z,47.80
2022-11-16T18:48:49.249Z,47.69
2022-11-16T18:51:18.562Z,47.20
2022-11-16T18:53:48.378Z,47.78
2022-11-16T18:56:17.070Z,47.77
2022-11-16T18:58:53.385Z,47.42
2022-11-16T19:01:23.568Z,47.48
2022-11-16T19:03:52.285Z,47.80
2022-11-16T19:06:20.569Z,47.77
2022-11-16T19:08:55.953Z,47.58
2022-11-16T19:11:24.635Z,47.78
2022-11-16T19:13:54.215Z,47.47
2022-11-16T19:16:22.567Z,47.82
2022-11-16T19:18:50.845Z,47.59
2022-11-16T19:21:19.679Z,47.88
2022-11-16T19:23:50.300Z,47.63
2022-11-16T19:26:19.574Z,47.83
2022-11-16T19:28:48.377Z,47.68
2022-11-16T19:31:17.543Z,47.63
2022-11-16T19:33:45.888Z,47.29
2022-11-16T19:36:14.994Z,47.69
2022-11-16T19:38:44.120Z,47.84
2022-11-16T19:41:14.515Z,47.41
2022-11-16T19:43:42.867Z,47.82
2022-11-16T19:46:12.194Z,47.53
2022-11-16T19:48:41.344Z,47.99
2022-11-16T19:51:10.346Z,48.12
2022-11-16T19:53:39.011Z,48.28
2022-11-16T19:56:08.406Z,48.29
2022-11-16T19:58:38.684Z,47.90
2022-11-16T20:01:08.154Z,48.41
2022-11-16T20:03:38.530Z,48.13
2022-11-16T20:06:08.738Z,48.32
2022-11-16T20:08:37.651Z,48.08
2022-11-16T20:11:13.308Z,48.11
2022-11-16T20:13:43.333Z,48.07
2022-11-16T20:16:12.776Z,47.95
2022-11-16T20:18:41.231Z,47.88
2022-11-16T20:21:10.016Z,48.24
2022-11-16T20:23:38.485Z,48.01
2022-11-16T20:26:07.304Z,48.11
2022-11-16T20:28:36.519Z,48.23
2022-11-16T20:31:08.693Z,47.92
2022-11-16T20:33:37.491Z,48.12
2022-11-16T20:36:07.237Z,47.95
2022-11-16T20:38:35.621Z,47.93
2022-11-16T20:41:11.325Z,48.22
2022-11-16T20:43:40.512Z,47.58
2022-11-16T20:46:10.803Z,47.83
2022-11-16T20:48:39.423Z,47.82
2022-11-16T20:51:08.078Z,47.88
2022-11-16T20:53:36.597Z,47.72
2022-11-16T20:56:06.109Z,48.03
2022-11-16T20:58:34.642Z,47.94
2022-11-16T21:01:02.909Z,48.20
2022-11-16T21:03:32.924Z,47.85
2022-11-16T21:06:01.543Z,48.05
2022-11-16T21:08:30.333Z,47.98
2022-11-16T21:10:58.700Z,48.02
2022-11-16T21:13:44.028Z,47.50
2022-11-16T21:16:15.144Z,47.55
2022-11-16T21:18:44.903Z,47.77
2022-11-16T21:21:13.959Z,47.74
2022-11-16T21:23:45.087Z,47.69
2022-11-16T21:26:14.132Z,47.65
2022-11-16T21:28:44.777Z,47.53
2022-11-16T21:31:14.298Z,47.74
2022-11-16T21:33:42.725Z,47.46
2022-11-16T21:36:13.761Z,47.61
2022-11-16T21:38:42.232Z,47.54
2022-11-16T21:41:10.844Z,47.54
2022-11-16T21:43:40.698Z,47.23
2022-11-16T21:46:14.116Z,47.16
2022-11-16T21:48:42.444Z,46.96
2022-11-16T21:51:12.804Z,47.29
2022-11-16T21:53:41.303Z,47.10
2022-11-16T21:56:12.852Z,47.44
2022-11-16T21:58:41.238Z,47.13
2022-11-16T22:01:09.906Z,46.73
2022-11-16T22:03:38.481Z,47.13
2022-11-16T22:06:25.036Z,47.04
2022-11-16T22:08:54.837Z,47.20
2022-11-16T22:11:23.140Z,46.88
2022-11-16T22:13:51.497Z,47.07
2022-11-16T22:16:20.424Z,46.73
2022-11-16T22:18:48.888Z,47.09
2022-11-16T22:21:17.527Z,47.13
2022-11-16T22:23:46.317Z,46.91
2022-11-16T22:26:16.737Z,47.07
2022-11-16T22:28:45.068Z,46.67
2022-11-16T22:31:14.437Z,47.31
2022-11-16T22:33:43.208Z,47.29
2022-11-16T22:36:12.040Z,47.03
2022-11-16T22:38:42.539Z,46.67
2022-11-16T22:41:11.147Z,47.30
2022-11-16T22:43:41.118Z,46.92
2022-11-16T22:46:11.048Z,46.69
2022-11-16T22:48:41.356Z,46.74
2022-11-16T22:51:14.061Z,47.04
2022-11-16T22:53:42.718Z,46.88
2022-11-16T22:56:11.533Z,46.90
2022-11-16T22:58:41.975Z,46.77
2022-11-16T23:01:10.930Z,47.15
2022-11-16T23:03:40.301Z,46.74
2022-11-16T23:06:09.340Z,46.99
2022-11-16T23:08:38.298Z,47.28
2022-11-16T23:11:25.250Z,46.59
2022-11-16T23:14:12.829Z,46.76
2022-11-16T23:16:41.589Z,46.86
2022-11-16T23:19:30.351Z,46.86
2022-11-16T23:22:16.148Z,46.68
2022-11-16T23:25:01.889Z,46.84
2022-11-16T23:27:31.605Z,47.00
2022-11-16T23:30:07.846Z,46.82
2022-11-16T23:32:39.573Z,47.09
2022-11-16T23:35:08.849Z,46.61
2022-11-16T23:37:40.838Z,46.72
2022-11-16T23:40:10.750Z,47.08
2022-11-16T23:42:56.669Z,46.98
2022-11-16T23:45:27.148Z,46.79
2022-11-16T23:47:56.000Z,46.66
2022-11-16T23:50:24.821Z,46.48
2022-11-16T23:52:53.408Z,46.39
2022-11-16T23:55:23.255Z,46.71
2022-11-16T23:57:52.138Z,46.52
